Time,TemperatureF,DewpointF,PressureIn,WindDirection,WindDirectionDegrees,WindSpeedMPH,WindSpeedGustMPH,Humidity,HourlyPrecipIn,Conditions,Clouds,dailyrainin,SoftwareType,DateUTC
2013-01-12 00:02:00,68.0,63.0,29.92,East,100,7.0,-999.0,82,-99.99,,,-99.99,,2013-01-12 10:02:00,
2013-01-12 00:11:00,66.0,63.0,29.92,East,80,6.0,-999.0,88,-99.99,,,-99.99,,2013-01-12 10:11:00,
2013-01-12 00:22:00,68.0,63.0,29.92,ENE,70,8.0,-999.0,82,-99.99,,,-99.99,,2013-01-12 10:22:00,
2013-01-12 00:32:00,68.0,63.0,29.92,ENE,60,6.0,-999.0,82,-99.99,,,-99.99,,2013-01-12 10:32:00,
2013-01-12 00:42:00,68.0,64.0,29.92,ENE,70,8.0,-999.0,88,-99.99,,,-99.99,,2013-01-12 10:42:00,
2013-01-12 00:52:00,68.0,64.0,29.92,NE,50,18.0,-999.0,88,-99.99,,,-99.99,,2013-01-12 10:52:00,
2013-01-12 01:02:00,68.0,64.0,29.92,NE,50,18.0,-999.0,88,-99.99,,,-99.99,,2013-01-12 11:02:00,
2013-01-12 01:11:00,70.0,64.0,29.92,NE,50,10.0,-999.0,82,-99.99,,,-99.99,,2013-01-12 11:11:00,
2013-01-12 01:22:00,70.0,64.0,29.92,NE,40,12.0,-999.0,82,-99.99,,,-99.99,,2013-01-12 11:22:00,
2013-01-12 01:32:00,70.0,64.0,29.92,NE,50,9.0,-999.0,82,-99.99,,,-99.99,,2013-01-12 11:32:00,
2013-01-12 01:42:00,68.0,64.0,29.92,NE,50,9.0,-999.0,88,-99.99,,,-99.99,,2013-01-12 11:42:00,
2013-01-12 01:52:00,68.0,64.0,29.92,East,80,8.0,-999.0,88,-99.99,,,-99.99,,2013-01-12 11:52:00,
2013-01-12 02:02:00,68.0,64.0,29.92,East,80,8.0,-999.0,88,-99.99,,,-99.99,,2013-01-12 12:02:00,
2013-01-12 02:11:00,68.0,64.0,29.92,East,100,5.0,-999.0,88,-99.99,,,-99.99,,2013-01-12 12:11:00,
2013-01-12 02:22:00,68.0,64.0,29.92,ENE,60,9.0,-999.0,88,-99.99,,,-99.99,,2013-01-12 12:22:00,
2013-01-12 02:32:00,68.0,64.0,29.92,ENE,70,7.0,-999.0,88,-99.99,,,-99.99,,2013-01-12 12:32:00,
2013-01-12 02:42:00,68.0,64.0,29.92,ENE,70,7.0,-999.0,88,-99.99,,,-99.99,,2013-01-12 12:42:00,
2013-01-12 02:52:00,68.0,64.0,29.91,NNE,30,8.0,-999.0,88,-99.99,,,-99.99,,2013-01-12 12:52:00,
2013-01-12 03:02:00,68.0,64.0,29.91,NNE,30,8.0,-999.0,88,-99.99,,,-99.99,,2013-01-12 13:02:00,
2013-01-12 03:11:00,68.0,64.0,29.91,NE,40,14.0,-999.0,88,-99.99,,,-99.99,,2013-01-12 13:11:00,
2013-01-12 03:22:00,68.0,64.0,29.92,ESE,120,9.0,-999.0,88,-99.99,,,-99.99,,2013-01-12 13:22:00,
2013-01-12 03:32:00,68.0,64.0,29.92,East,90,6.0,-999.0,88,-99.99,,,-99.99,,2013-01-12 13:32:00,
2013-01-12 03:42:00,68.0,64.0,29.92,SSE,160,5.0,-999.0,88,-99.99,,,-99.99,,2013-01-12 13:42:00,
2013-01-12 03:52:00,70.0,64.0,29.92,North,0,0.0,-999.0,82,-99.99,,,-99.99,,2013-01-12 13:52:00,
2013-01-12 04:02:00,70.0,64.0,29.92,North,0,0.0,-999.0,82,-99.99,,,-99.99,,2013-01-12 14:02:00,
2013-01-12 04:11:00,70.0,64.0,29.92,NW,320,2.0,-999.0,82,-99.99,,,-99.99,,2013-01-12 14:11:00,
2013-01-12 04:22:00,68.0,64.0,29.92,North,0,0.0,-999.0,88,-99.99,,,-99.99,,2013-01-12 14:22:00,
2013-01-12 04:32:00,68.0,63.0,29.92,ENE,60,3.0,-999.0,82,-99.99,,,-99.99,,2013-01-12 14:32:00,
2013-01-12 04:42:00,68.0,63.0,29.92,NE,50,2.0,-999.0,82,-99.99,,,-99.99,,2013-01-12 14:42:00,
2013-01-12 04:53:00,72.0,64.0,29.92,North,0,0.0,-999.0,78,-99.99,,,-99.99,,2013-01-12 14:53:00,
2013-01-12 05:03:00,72.0,64.0,29.92,North,0,0.0,-999.0,78,-99.99,,,-99.99,,2013-01-12 15:03:00,
2013-01-12 05:11:00,72.0,64.0,29.92,North,0,0.0,-999.0,78,-99.99,,,-99.99,,2013-01-12 15:11:00,
2013-01-12 05:22:00,68.0,64.0,29.92,NE,50,5.0,-999.0,88,-99.99,,,-99.99,,2013-01-12 15:22:00,
2013-01-12 05:33:00,68.0,64.0,29.92,NNE,30,5.0,-999.0,88,-99.99,,,-99.99,,2013-01-12 15:33:00,
2013-01-12 05:42:00,68.0,64.0,29.92,NE,50,2.0,-999.0,88,-99.99,,,-99.99,,2013-01-12 15:42:00,
2013-01-12 05:52:00,68.0,64.0,29.93,East,100,2.0,-999.0,88,-99.99,,,-99.99,,2013-01-12 15:52:00,
2013-01-12 06:02:00,68.0,64.0,29.93,East,100,2.0,-999.0,88,-99.99,,,-99.99,,2013-01-12 16:02:00,
2013-01-12 06:12:00,68.0,64.0,29.93,North,0,0.0,-999.0,88,-99.99,,,-99.99,,2013-01-12 16:12:00,
2013-01-12 06:22:00,68.0,64.0,29.93,North,0,0.0,-999.0,88,-99.99,,,-99.99,,2013-01-12 16:22:00,
2013-01-12 06:32:00,68.0,64.0,29.94,North,0,0.0,-999.0,88,-99.99,,,-99.99,,2013-01-12 16:32:00,
2013-01-12 06:42:00,68.0,64.0,29.94,ESE,110,6.0,-999.0,88,-99.99,,,-99.99,,2013-01-12 16:42:00,
2013-01-12 06:52:00,68.0,64.0,29.94,SSE,150,7.0,-999.0,88,-99.99,,,-99.99,,2013-01-12 16:52:00,
2013-01-12 07:01:00,68.0,64.0,29.94,SSE,150,7.0,-999.0,88,-99.99,,,-99.99,,2013-01-12 17:01:00,
2013-01-12 07:12:00,68.0,64.0,29.94,SE,130,6.0,-999.0,88,-99.99,,,-99.99,,2013-01-12 17:12:00,
2013-01-12 07:22:00,66.0,64.0,29.95,East,80,6.0,-999.0,93,-99.99,,,-99.99,,2013-01-12 17:22:00,
2013-01-12 07:32:00,66.0,64.0,29.95,ENE,60,6.0,-999.0,93,-99.99,,,-99.99,,2013-01-12 17:32:00,
2013-01-12 07:42:00,68.0,64.0,29.95,ENE,70,5.0,-999.0,88,-99.99,,,-99.99,,2013-01-12 17:42:00,
2013-01-12 07:52:00,68.0,64.0,29.96,ENE,70,7.0,-999.0,88,-99.99,,,-99.99,,2013-01-12 17:52:00,
2013-01-12 08:02:00,68.0,64.0,29.96,ENE,70,7.0,-999.0,88,-99.99,,,-99.99,,2013-01-12 18:02:00,
2013-01-12 08:11:00,68.0,64.0,29.96,East,100,5.0,-999.0,88,-99.99,,,-99.99,,2013-01-12 18:11:00,
2013-01-12 08:22:00,68.0,64.0,29.96,SE,130,7.0,-999.0,88,-99.99,,,-99.99,,2013-01-12 18:22:00,
2013-01-12 08:32:00,70.0,64.0,29.97,SE,140,6.0,-999.0,82,-99.99,,,-99.99,,2013-01-12 18:32:00,
2013-01-12 08:42:00,70.0,66.0,29.97,SE,130,5.0,-999.0,88,-99.99,,,-99.99,,2013-01-12 18:42:00,
2013-01-12 08:52:00,72.0,66.0,29.98,East,100,3.0,-999.0,83,-99.99,,,-99.99,,2013-01-12 18:52:00,
2013-01-12 09:02:00,72.0,66.0,29.98,East,100,3.0,-999.0,83,-99.99,,,-99.99,,2013-01-12 19:02:00,
2013-01-12 09:11:00,72.0,66.0,29.98,North,0,0.0,-999.0,83,-99.99,,,-99.99,,2013-01-12 19:11:00,
2013-01-12 09:22:00,73.0,64.0,29.98,North,0,0.0,-999.0,73,-99.99,,,-99.99,,2013-01-12 19:22:00,
2013-01-12 09:32:00,73.0,64.0,29.99,North,0,0.0,-999.0,73,-99.99,,,-99.99,,2013-01-12 19:32:00,
2013-01-12 09:42:00,75.0,64.0,29.99,WNW,290,5.0,-999.0,69,-99.99,,,-99.99,,2013-01-12 19:42:00,
2013-01-12 09:52:00,75.0,64.0,29.99,North,0,0.0,-999.0,69,-99.99,,,-99.99,,2013-01-12 19:52:00,
2013-01-12 10:02:00,75.0,64.0,29.99,North,0,0.0,-999.0,69,-99.99,,,-99.99,,2013-01-12 20:02:00,
2013-01-12 10:11:00,75.0,64.0,29.98,North,0,0.0,-999.0,69,-99.99,,,-99.99,,2013-01-12 20:11:00,
2013-01-12 10:21:00,75.0,64.0,29.98,WSW,250,2.0,-999.0,69,-99.99,,,-99.99,,2013-01-12 20:21:00,
2013-01-12 10:32:00,75.0,64.0,29.97,West,260,6.0,-999.0,69,-99.99,,,-99.99,,2013-01-12 20:32:00,
2013-01-12 10:42:00,75.0,64.0,29.97,WSW,240,3.0,-999.0,69,-99.99,,,-99.99,,2013-01-12 20:42:00,
2013-01-12 10:52:00,77.0,64.0,29.97,West,260,5.0,-999.0,65,-99.99,,,-99.99,,2013-01-12 20:52:00,
2013-01-12 11:02:00,77.0,64.0,29.97,West,260,5.0,-999.0,65,-99.99,,,-99.99,,2013-01-12 21:02:00,
2013-01-12 11:11:00,75.0,66.0,29.96,West,270,5.0,-999.0,73,-99.99,,,-99.99,,2013-01-12 21:11:00,
2013-01-12 11:21:00,75.0,64.0,29.96,West,260,5.0,-999.0,69,-99.99,,,-99.99,,2013-01-12 21:21:00,
2013-01-12 11:32:00,75.0,64.0,29.95,North,0,0.0,-999.0,69,-99.99,,,-99.99,,2013-01-12 21:32:00,
2013-01-12 11:42:00,75.0,64.0,29.95,North,0,0.0,-999.0,69,-99.99,,,-99.99,,2013-01-12 21:42:00,
2013-01-12 11:52:00,75.0,64.0,29.94,North,0,0.0,-999.0,69,-99.99,,,-99.99,,2013-01-12 21:52:00,
2013-01-12 12:02:00,75.0,64.0,29.94,North,0,0.0,-999.0,69,-99.99,,,-99.99,,2013-01-12 22:02:00,
2013-01-12 12:11:00,77.0,64.0,29.94,North,0,0.0,-999.0,65,-99.99,,,-99.99,,2013-01-12 22:11:00,
2013-01-12 12:22:00,77.0,64.0,29.93,West,280,6.0,-999.0,65,-99.99,,,-99.99,,2013-01-12 22:22:00,
2013-01-12 12:32:00,77.0,64.0,29.93,West,270,5.0,-999.0,65,-99.99,,,-99.99,,2013-01-12 22:32:00,
2013-01-12 12:42:00,77.0,64.0,29.92,West,280,6.0,-999.0,65,-99.99,,,-99.99,,2013-01-12 22:42:00,
2013-01-12 12:52:00,77.0,66.0,29.92,WNW,290,6.0,-999.0,69,-99.99,,,-99.99,,2013-01-12 22:52:00,
2013-01-12 13:02:00,77.0,66.0,29.92,WNW,290,6.0,-999.0,69,-99.99,,,-99.99,,2013-01-12 23:02:00,
2013-01-12 13:11:00,77.0,64.0,29.91,West,280,6.0,-999.0,65,-99.99,,,-99.99,,2013-01-12 23:11:00,
2013-01-12 13:21:00,77.0,64.0,29.91,North,0,0.0,-999.0,65,-99.99,,,-99.99,,2013-01-12 23:21:00,
2013-01-12 13:32:00,79.0,64.0,29.91,SSW,210,7.0,-999.0,61,-99.99,,,-99.99,,2013-01-12 23:32:00,
2013-01-12 13:42:00,79.0,64.0,29.91,North,0,0.0,-999.0,61,-99.99,,,-99.99,,2013-01-12 23:42:00,
2013-01-12 13:52:00,81.0,64.0,29.91,NNW,330,6.0,-999.0,57,-99.99,,,-99.99,,2013-01-12 23:52:00,
2013-01-12 14:02:00,81.0,64.0,29.91,NNW,330,6.0,-999.0,57,-99.99,,,-99.99,,2013-01-13 00:02:00,
2013-01-12 14:11:00,81.0,66.0,29.91,WNW,300,8.0,-999.0,61,-99.99,,,-99.99,,2013-01-13 00:11:00,
2013-01-12 14:21:00,79.0,64.0,29.90,WNW,300,8.0,-999.0,61,-99.99,,,-99.99,,2013-01-13 00:21:00,
2013-01-12 14:32:00,79.0,64.0,29.90,West,280,3.0,-999.0,61,-99.99,,,-99.99,,2013-01-13 00:32:00,
2013-01-12 14:42:00,79.0,64.0,29.90,West,260,3.0,-999.0,61,-99.99,,,-99.99,,2013-01-13 00:42:00,
2013-01-12 14:52:00,81.0,63.0,29.90,NNW,340,7.0,-999.0,54,-99.99,,,-99.99,,2013-01-13 00:52:00,
2013-01-12 15:02:00,81.0,63.0,29.90,NNW,340,7.0,-999.0,54,-99.99,,,-99.99,,2013-01-13 01:02:00,
2013-01-12 15:11:00,81.0,64.0,29.90,WNW,300,3.0,-999.0,57,-99.99,,,-99.99,,2013-01-13 01:11:00,
2013-01-12 15:22:00,79.0,64.0,29.90,West,270,6.0,-999.0,61,-99.99,,,-99.99,,2013-01-13 01:22:00,
2013-01-12 15:32:00,79.0,64.0,29.90,WNW,300,7.0,-999.0,61,-99.99,,,-99.99,,2013-01-13 01:32:00,
2013-01-12 15:42:00,77.0,64.0,29.91,WNW,300,6.0,-999.0,65,-99.99,,,-99.99,,2013-01-13 01:42:00,
2013-01-12 15:52:00,77.0,64.0,29.91,SW,220,3.0,-999.0,65,-99.99,,,-99.99,,2013-01-13 01:52:00,
2013-01-12 16:02:00,77.0,64.0,29.91,SW,220,3.0,-999.0,65,-99.99,,,-99.99,,2013-01-13 02:02:00,
2013-01-12 16:12:00,77.0,64.0,29.91,WSW,250,6.0,-999.0,65,-99.99,,,-99.99,,2013-01-13 02:12:00,
2013-01-12 16:21:00,77.0,64.0,29.92,WSW,250,5.0,-999.0,65,-99.99,,,-99.99,,2013-01-13 02:21:00,
2013-01-12 16:32:00,77.0,64.0,29.92,WSW,240,6.0,-999.0,65,-99.99,,,-99.99,,2013-01-13 02:32:00,
2013-01-12 16:42:00,77.0,64.0,29.92,West,270,5.0,-999.0,65,-99.99,,,-99.99,,2013-01-13 02:42:00,
2013-01-12 16:52:00,77.0,64.0,29.93,WSW,240,6.0,-999.0,65,-99.99,,,-99.99,,2013-01-13 02:52:00,
2013-01-12 17:02:00,77.0,64.0,29.93,WSW,240,6.0,-999.0,65,-99.99,,,-99.99,,2013-01-13 03:02:00,
2013-01-12 17:11:00,77.0,66.0,29.93,WSW,240,3.0,-999.0,69,-99.99,,,-99.99,,2013-01-13 03:11:00,
2013-01-12 17:21:00,75.0,66.0,29.94,North,0,0.0,-999.0,73,-99.99,,,-99.99,,2013-01-13 03:21:00,
2013-01-12 17:32:00,75.0,66.0,29.94,SSW,210,5.0,-999.0,73,-99.99,,,-99.99,,2013-01-13 03:32:00,
2013-01-12 17:42:00,75.0,66.0,29.94,SSW,200,3.0,-999.0,73,-99.99,,,-99.99,,2013-01-13 03:42:00,
2013-01-12 17:52:00,75.0,66.0,29.94,SSW,210,3.0,-999.0,73,-99.99,,,-99.99,,2013-01-13 03:52:00,
2013-01-12 18:02:00,75.0,66.0,29.94,SSW,210,3.0,-999.0,73,-99.99,,,-99.99,,2013-01-13 04:02:00,
2013-01-12 18:11:00,75.0,66.0,29.94,South,190,6.0,-999.0,73,0.00,,,-99.99,,2013-01-13 04:11:00,
2013-01-12 18:22:00,73.0,64.0,29.95,South,180,6.0,-999.0,73,0.00,,,-99.99,,2013-01-13 04:22:00,
2013-01-12 18:32:00,75.0,66.0,29.95,South,180,5.0,-999.0,73,0.00,,,-99.99,,2013-01-13 04:32:00,
2013-01-12 18:42:00,73.0,64.0,29.96,South,180,6.0,-999.0,73,0.00,,,-99.99,,2013-01-13 04:42:00,
2013-01-12 18:52:00,73.0,64.0,29.96,South,180,7.0,-999.0,73,-99.99,,,-99.99,,2013-01-13 04:52:00,
2013-01-12 19:03:00,73.0,64.0,29.96,South,180,7.0,-999.0,73,-99.99,,,-99.99,,2013-01-13 05:03:00,
2013-01-12 19:12:00,73.0,64.0,29.96,SSE,160,6.0,-999.0,73,-99.99,,,-99.99,,2013-01-13 05:12:00,
2013-01-12 19:22:00,72.0,64.0,29.96,SSE,150,7.0,-999.0,78,-99.99,,,-99.99,,2013-01-13 05:22:00,
2013-01-12 19:32:00,72.0,64.0,29.97,SSE,150,8.0,-999.0,78,-99.99,,,-99.99,,2013-01-13 05:32:00,
2013-01-12 19:42:00,72.0,64.0,29.97,SE,140,7.0,-999.0,78,-99.99,,,-99.99,,2013-01-13 05:42:00,
2013-01-12 19:52:00,68.0,63.0,29.97,SE,130,9.0,-999.0,82,-99.99,,,-99.99,,2013-01-13 05:52:00,
2013-01-12 20:02:00,68.0,63.0,29.97,SE,130,9.0,-999.0,82,-99.99,,,-99.99,,2013-01-13 06:02:00,
2013-01-12 20:12:00,68.0,63.0,29.97,SE,130,8.0,-999.0,82,-99.99,,,-99.99,,2013-01-13 06:12:00,
2013-01-12 20:22:00,70.0,63.0,29.98,SE,140,10.0,-999.0,77,-99.99,,,-99.99,,2013-01-13 06:22:00,
2013-01-12 20:32:00,70.0,63.0,29.98,SE,130,9.0,-999.0,77,-99.99,,,-99.99,,2013-01-13 06:32:00,
2013-01-12 20:42:00,70.0,63.0,29.98,SE,140,9.0,-999.0,77,-99.99,,,-99.99,,2013-01-13 06:42:00,
2013-01-12 20:52:00,70.0,63.0,29.98,SE,140,9.0,-999.0,77,-99.99,,,-99.99,,2013-01-13 06:52:00,
2013-01-12 21:02:00,70.0,63.0,29.98,SE,140,9.0,-999.0,77,-99.99,,,-99.99,,2013-01-13 07:02:00,
2013-01-12 21:11:00,72.0,63.0,29.98,SSE,150,8.0,-999.0,73,-99.99,,,-99.99,,2013-01-13 07:11:00,
2013-01-12 21:22:00,72.0,63.0,29.98,SSE,150,8.0,-999.0,73,-99.99,,,-99.99,,2013-01-13 07:22:00,
2013-01-12 21:32:00,70.0,63.0,29.99,SE,140,8.0,-999.0,77,-99.99,,,-99.99,,2013-01-13 07:32:00,
2013-01-12 21:42:00,70.0,63.0,29.99,SSE,150,6.0,-999.0,77,-99.99,,,-99.99,,2013-01-13 07:42:00,
2013-01-12 21:52:00,70.0,63.0,29.99,SE,140,5.0,-999.0,77,-99.99,,,-99.99,,2013-01-13 07:52:00,
2013-01-12 22:01:00,70.0,63.0,29.99,SE,140,5.0,-999.0,77,-99.99,,,-99.99,,2013-01-13 08:01:00,
2013-01-12 22:11:00,68.0,61.0,29.99,ESE,110,7.0,-999.0,77,-99.99,,,-99.99,,2013-01-13 08:11:00,
2013-01-12 22:22:00,68.0,63.0,29.99,ESE,120,6.0,-999.0,82,-99.99,,,-99.99,,2013-01-13 08:22:00,
2013-01-12 22:32:00,68.0,63.0,29.99,ESE,110,8.0,-999.0,82,-99.99,,,-99.99,,2013-01-13 08:32:00,
2013-01-12 22:42:00,68.0,63.0,29.99,ESE,110,8.0,-999.0,82,-99.99,,,-99.99,,2013-01-13 08:42:00,
2013-01-12 22:52:00,68.0,63.0,29.99,East,80,10.0,-999.0,82,-99.99,,,-99.99,,2013-01-13 08:52:00,
2013-01-12 23:02:00,68.0,63.0,29.99,East,80,10.0,-999.0,82,-99.99,,,-99.99,,2013-01-13 09:02:00,
2013-01-12 23:11:00,70.0,63.0,29.99,East,80,12.0,-999.0,77,-99.99,,,-99.99,,2013-01-13 09:11:00,
2013-01-12 23:22:00,70.0,63.0,29.99,ENE,70,13.0,-999.0,77,-99.99,,,-99.99,,2013-01-13 09:22:00,
2013-01-12 23:32:00,70.0,63.0,29.99,ENE,60,12.0,-999.0,77,-99.99,,,-99.99,,2013-01-13 09:32:00,
2013-01-12 23:42:00,70.0,63.0,29.99,NE,50,9.0,-999.0,77,-99.99,,,-99.99,,2013-01-13 09:42:00,
2013-01-12 23:52:00,68.0,63.0,29.99,NNE,30,6.0,-999.0,82,-99.99,,,-99.99,,2013-01-13 09:52:00,